Flight Track Log - Related Links

Times and Time Zones

All times are in EDT time to prevent confusion due to time zone crossing. See the UAL838 flight status page for this flight to view local times or setup timezone preferences in your user account.


Time Position Orientation Groundspeed Altitude Reporting Facility
EDT Latitude Longitude Course Direction KTS MPH feet Rate Location/Type
Wed 03:31:52 AM 36.1323 141.2889 50° Northeast  Level FlightAware Approximate
Wed 03:32:52 AM 36.1916 141.4455 50° Northeast  Level FlightAware Approximate
Wed 03:33:52 AM 36.2558 141.5993 50° Northeast  Level FlightAware Approximate
Wed 03:34:52 AM 36.3227 141.7513 50° Northeast  Level FlightAware Approximate
Wed 03:35:52 AM 36.3845 141.9069 50° Northeast  Level FlightAware Approximate
Wed 03:36:52 AM 36.4338 142.0682 50° Northeast  Level FlightAware Approximate
Wed 03:37:52 AM 36.5012 142.2198 50° Northeast  Level FlightAware Approximate
Wed 03:38:52 AM 36.5625 142.3761 50° Northeast  Level FlightAware Approximate
Wed 03:39:52 AM 36.6235 142.5327 50° Northeast  Level FlightAware Approximate
Wed 03:40:52 AM 36.6821 142.6907 50° Northeast  Level FlightAware Approximate
Wed 03:41:52 AM 36.7428 142.8477 50° Northeast  Level FlightAware Approximate
Wed 03:42:52 AM 36.8116 142.9969 50° Northeast  Level FlightAware Approximate
Wed 03:43:52 AM 36.8726 143.1565 50° Northeast  Level FlightAware Approximate
Wed 03:44:52 AM 36.9333 143.3160 50° Northeast  Level FlightAware Approximate
Wed 03:45:52 AM 36.9937 143.4758 50° Northeast  Level FlightAware Approximate
Wed 03:46:52 AM 37.0539 143.6355 50° Northeast  Level FlightAware Approximate
Wed 03:47:52 AM 37.1138 143.7955 50° Northeast  Level FlightAware Approximate
Wed 03:48:52 AM 37.1735 143.9558 50° Northeast  Level FlightAware Approximate
Wed 03:49:52 AM 37.4755 144.7791 50° Northeast  Level FlightAware Approximate
Wed 03:50:52 AM 37.7716 145.6090 50° Northeast  Level FlightAware Approximate
Wed 03:51:52 AM 38.0551 146.4492 49° Northeast  Level FlightAware Approximate
Wed 03:52:52 AM 38.3397 147.2921 49° Northeast  Level FlightAware Approximate
Wed 03:53:52 AM 38.7626 148.0387 49° Northeast  Level FlightAware Approximate
Wed 03:54:52 AM 39.1808 148.7941 49° Northeast  Level FlightAware Approximate
Wed 03:55:52 AM 39.5940 149.5586 50° Northeast  Level FlightAware Approximate
Wed 03:56:52 AM 40.0589 150.2762 50° Northeast  Level FlightAware Approximate
Wed 03:57:52 AM 40.5192 151.0036 51° Northeast  Level FlightAware Approximate
Wed 03:58:52 AM 40.9749 151.7410 51° Northeast  Level FlightAware Approximate
Wed 03:59:52 AM 41.4259 152.4887 51° Northeast  Level FlightAware Approximate
Wed 04:00:52 AM 41.5506 153.3543 50° Northeast  Level FlightAware Approximate
Wed 04:01:52 AM 42.0120 154.0972 50° Northeast  Level FlightAware Approximate
Wed 04:02:52 AM 42.4686 154.8509 51° Northeast  Level FlightAware Approximate
Wed 04:03:52 AM 42.9201 155.6157 51° Northeast  Level FlightAware Approximate
Wed 04:04:52 AM 43.3748 156.3801 52° Northeast  Level FlightAware Approximate
Wed 04:05:52 AM 43.7954 157.1886 52° Northeast  Level FlightAware Approximate
Wed 04:06:52 AM 44.2102 158.0084 52° Northeast  Level FlightAware Approximate
Wed 04:07:52 AM 44.6190 158.8398 52° Northeast  Level FlightAware Approximate
Wed 04:08:52 AM 45.0217 159.6829 52° Northeast  Level FlightAware Approximate
Wed 04:09:52 AM 45.4181 160.5378 50° Northeast  Level FlightAware Approximate
Wed 04:10:52 AM 45.8081 161.4048 46° Northeast  Level FlightAware Approximate
Wed 04:11:52 AM 45.8843 161.5773 44° Northeast  Level FlightAware Approximate
Wed 04:12:52 AM 45.9602 161.7503 40° Northeast  Level FlightAware Approximate
Wed 04:13:52 AM 46.0359 161.9238 35° Northeast  Level FlightAware Approximate
Wed 04:14:52 AM 46.1113 162.0978 26° Northeast  Level FlightAware Approximate
Wed 04:15:52 AM 46.1865 162.2723 North  Level FlightAware Approximate
Wed 04:16:52 AM 46.2613 162.4472 330° Northwest  Level FlightAware Approximate
Wed 04:17:52 AM 46.3360 162.6226 291° West  Level FlightAware Approximate
Wed 04:18:52 AM 46.4103 162.7985 271° West  Level FlightAware Approximate
Wed 04:19:52 AM 46.4844 162.9749 262° West  Level FlightAware Approximate
Wed 04:20:52 AM 46.5582 163.1517 256° West  Level FlightAware Approximate
Wed 04:21:52 AM 46.6317 163.3290 253° West  Level FlightAware Approximate
Wed 04:22:52 AM 46.7049 163.5068 251° West  Level FlightAware Approximate
Wed 04:23:52 AM 46.7779 163.6851 249° West  Level FlightAware Approximate
Wed 04:24:52 AM 46.8506 163.8639 248° West  Level FlightAware Approximate
Wed 04:25:52 AM 46.9230 164.0432 247° West  Level FlightAware Approximate
Wed 04:26:52 AM 46.9952 164.2229 247° West  Level FlightAware Approximate
Wed 04:27:52 AM 47.0671 164.4031 246° West  Level FlightAware Approximate
Wed 04:28:52 AM 47.1350 164.5868 246° West  Level FlightAware Approximate
Wed 04:29:52 AM 47.2026 164.7710 246° West  Level FlightAware Approximate
Wed 04:30:52 AM 47.2700 164.9556 246° West  Level FlightAware Approximate
Wed 04:31:52 AM 47.3371 165.1407 246° West  Level FlightAware Approximate
Wed 04:32:52 AM 47.4038 165.3263 245° Southwest  Level FlightAware Approximate
Wed 04:33:52 AM 47.4703 165.5124 245° Southwest  Level FlightAware Approximate
Wed 04:34:52 AM 47.5364 165.6989 245° Southwest  Level FlightAware Approximate
Wed 04:35:52 AM 47.6023 165.8859 245° Southwest  Level FlightAware Approximate
Wed 04:36:52 AM 47.6679 166.0733 245° Southwest  Level FlightAware Approximate
Wed 04:37:52 AM 47.7331 166.2612 245° Southwest  Level FlightAware Approximate
Wed 04:38:52 AM 47.7980 166.4496 245° Southwest  Level FlightAware Approximate
Wed 04:39:52 AM 47.8627 166.6385 245° Southwest  Level FlightAware Approximate
Wed 04:40:52 AM 47.9270 166.8279 245° Southwest  Level FlightAware Approximate
Wed 04:41:52 AM 47.9910 167.0177 245° Southwest  Level FlightAware Approximate
Wed 04:42:52 AM 48.0547 167.2080 246° West  Level FlightAware Approximate
Wed 04:43:52 AM 48.1181 167.3987 246° West  Level FlightAware Approximate
Wed 04:44:52 AM 48.1811 167.5900 246° West  Level FlightAware Approximate
Wed 04:45:52 AM 48.2439 167.7816 246° West  Level FlightAware Approximate
Wed 04:46:52 AM 48.3063 167.9738 246° West  Level FlightAware Approximate
Wed 04:47:52 AM 48.3684 168.1664 246° West  Level FlightAware Approximate
Wed 04:48:52 AM 48.4302 168.3595 246° West  Level FlightAware Approximate
Wed 04:49:52 AM 48.4916 168.5531 246° West  Level FlightAware Approximate
Wed 04:50:52 AM 48.5527 168.7471 246° West  Level FlightAware Approximate
Wed 04:51:52 AM 48.6780 168.8049 245° Southwest  Level FlightAware Approximate
Wed 04:52:52 AM 48.7367 169.0014 245° Southwest  Level FlightAware Approximate
Wed 04:53:52 AM 48.7950 169.1983 245° Southwest  Level FlightAware Approximate
Wed 04:54:52 AM 48.8530 169.3957 246° West  Level FlightAware Approximate
Wed 04:55:52 AM 48.9106 169.5936 246° West  Level FlightAware Approximate
Wed 04:56:52 AM 48.9679 169.7919 246° West  Level FlightAware Approximate
Wed 04:57:52 AM 49.0249 169.9907 246° West  Level FlightAware Approximate
Wed 04:58:52 AM 49.0815 170.1899 246° West  Level FlightAware Approximate
Wed 04:59:52 AM 49.1378 170.3896 246° West  Level FlightAware Approximate
Wed 05:00:52 AM 49.1937 170.5897 247° West  Level FlightAware Approximate
Wed 05:01:52 AM 49.2493 170.7903 247° West  Level FlightAware Approximate
Wed 05:02:52 AM 49.3045 170.9914 247° West  Level FlightAware Approximate
Wed 05:03:52 AM 49.3594 171.1929 247° West  Level FlightAware Approximate
Wed 05:04:52 AM 49.4140 171.3948 247° West  Level FlightAware Approximate
Wed 05:05:52 AM 49.4681 171.5972 247° West  Level FlightAware Approximate
Wed 05:06:52 AM 49.5220 171.8000 248° West  Level FlightAware Approximate
Wed 05:07:52 AM 49.5754 172.0033 248° West  Level FlightAware Approximate
Wed 05:08:52 AM 49.6286 172.2070 248° West  Level FlightAware Approximate
Wed 05:09:52 AM 49.6813 172.4112 248° West  Level FlightAware Approximate
Wed 05:10:52 AM 49.7337 172.6158 248° West  Level FlightAware Approximate
Wed 05:11:52 AM 49.7858 172.8208 248° West  Level FlightAware Approximate
Wed 05:12:52 AM 49.8374 173.0263 248° West  Level FlightAware Approximate
Wed 05:13:52 AM 49.8887 173.2323 249° West  Level FlightAware Approximate
Wed 05:14:52 AM 49.9397 173.4386 249° West  Level FlightAware Approximate
Wed 05:15:52 AM 49.9903 173.6454 249° West  Level FlightAware Approximate
Wed 05:16:52 AM 50.0405 173.8526 249° West  Level FlightAware Approximate
Wed 05:17:52 AM 50.0903 174.0603 249° West  Level FlightAware Approximate
Wed 05:18:52 AM 50.1398 174.2684 249° West  Level FlightAware Approximate
Wed 05:19:52 AM 50.1889 174.4769 250° West  Level FlightAware Approximate
Wed 05:20:52 AM 50.2376 174.6859 250° West  Level FlightAware Approximate
Wed 05:21:52 AM 50.2860 174.8953 250° West  Level FlightAware Approximate
Wed 05:22:52 AM 50.3339 175.1051 250° West  Level FlightAware Approximate
Wed 05:23:52 AM 50.3815 175.3153 250° West  Level FlightAware Approximate
Wed 05:24:52 AM 50.4287 175.5260 250° West  Level FlightAware Approximate
Wed 05:25:52 AM 50.4756 175.7370 251° West  Level FlightAware Approximate
Wed 05:26:52 AM 50.5050 175.9557 251° West  Level FlightAware Approximate
Wed 05:27:52 AM 50.5701 176.1548 251° West  Level FlightAware Approximate
Wed 05:28:52 AM 50.6348 176.3544 251° West  Level FlightAware Approximate
Wed 05:29:52 AM 50.6993 176.5546 251° West  Level FlightAware Approximate
Wed 05:30:52 AM 50.7634 176.7553 251° West  Level FlightAware Approximate
Wed 05:31:52 AM 50.8271 176.9566 251° West  Level FlightAware Approximate
Wed 05:32:52 AM 50.8905 177.1585 251° West  Level FlightAware Approximate
Wed 05:33:52 AM 50.9536 177.3609 251° West  Level FlightAware Approximate
Wed 05:34:52 AM 51.0163 177.5638 251° West  Level FlightAware Approximate
Wed 05:35:52 AM 51.0786 177.7673 251° West  Level FlightAware Approximate
Wed 05:36:52 AM 51.1406 177.9713 251° West  Level FlightAware Approximate
Wed 05:37:52 AM 51.2023 178.1759 252° West  Level FlightAware Approximate
Wed 05:38:52 AM 51.2635 178.3811 252° West  Level FlightAware Approximate
Wed 05:39:52 AM 51.3245 178.5867 252° West  Level FlightAware Approximate
Wed 05:40:52 AM 51.3850 178.7930 252° West  Level FlightAware Approximate
Wed 05:41:52 AM 51.4452 178.9997 252° West  Level FlightAware Approximate
Wed 05:42:52 AM 51.5051 179.2071 252° West  Level FlightAware Approximate
Wed 05:43:52 AM 51.5645 179.4149 252° West  Level FlightAware Approximate
Wed 05:44:52 AM 51.6236 179.6233 252° West  Level FlightAware Approximate
Wed 05:45:52 AM 51.6824 179.8323 252° West  Level FlightAware Approximate
Wed 05:46:52 AM 51.7407 -179.9583 252° West  Level FlightAware Approximate
Wed 05:47:22 AM 46.4167 162.3167 54° Northeast 501 577 36,000  Level Anchorage Center
Wed 05:47:39 AM 46.4333 162.3500 60° Northeast 501 577 36,000  Level Anchorage Center
Wed 06:00:44 AM 47.3500 164.7833 62° Northeast 496 571 36,000  Level Anchorage Center
Wed 06:14:36 AM 48.2000 167.2833 64° Northeast 497 572 36,000  Level Anchorage Center
Wed 06:22:59 AM 48.6833 168.7833 66° East 512 589 36,000  Level Anchorage Center
Wed 06:28:29 AM 49.0167 169.9333 68° East 524 603 36,000  Level Anchorage Center
Wed 06:34:12 AM 49.3167 171.1167 67° East 560 644 36,000  Level Anchorage Center
Wed 06:39:12 AM 49.6000 172.1500 74° East 530 610 36,000  Level Anchorage Center
Wed 06:40:12 AM 49.6333 172.3333 66° East 530 610 36,000  Level Anchorage Center
Wed 06:41:12 AM 49.7000 172.5667 67° East 540 621 36,000  Level Anchorage Center
Wed 06:42:12 AM 49.7500 172.7500 72° East 540 621 36,000  Level Anchorage Center
Wed 06:43:12 AM 49.8000 172.9833 67° East 540 621 36,000  Level Anchorage Center
Wed 06:44:12 AM 49.8500 173.1667 72° East 530 610 36,000  Level Anchorage Center
Wed 06:45:12 AM 49.9000 173.4000 66° East 530 610 36,000  Level Anchorage Center
Wed 06:46:13 AM 49.9667 173.6333 74° East 530 610 36,000  Level Anchorage Center
Wed 06:47:12 AM 50.0000 173.8167 67° East 530 610 36,000  Level Anchorage Center
Wed 06:48:13 AM 50.0667 174.0667 67° East 540 621 36,000  Level Anchorage Center
Wed 06:49:13 AM 50.1167 174.2500 71° East 540 621 36,000  Level Anchorage Center
Wed 06:50:13 AM 50.1667 174.4833 75° East 540 621 36,000  Level Anchorage Center
Wed 06:51:13 AM 50.2000 174.6833 66° East 530 610 36,000  Level Anchorage Center
Wed 06:52:13 AM 50.2667 174.9167 73° East 530 610 36,000  Level Anchorage Center
Wed 06:53:13 AM 50.3000 175.0833 74° East 510 587 36,000  Level Anchorage Center
Wed 06:54:13 AM 50.3500 175.3500 64° Northeast 560 644 36,000  Level Anchorage Center
Wed 06:55:13 AM 50.4167 175.5667 75° East 530 610 36,000  Level Anchorage Center
Wed 06:56:13 AM 50.4500 175.7667 71° East 540 621 36,000  Level Anchorage Center
Wed 06:57:13 AM 50.5000 176.0000 68° East 540 621 36,000  Level Anchorage Center
Wed 06:58:13 AM 50.5500 176.2000 71° East 530 610 36,000  Level Anchorage Center
Wed 06:59:13 AM 50.6000 176.4333 74° East 530 610 36,000  Level Anchorage Center
Wed 07:00:13 AM 50.6333 176.6167 72° East 520 598 36,000  Level Anchorage Center
Wed 07:01:14 AM 50.6833 176.8667 71° East 530 610 36,000  Level Anchorage Center
Wed 07:02:13 AM 50.7333 177.1000 67° East 530 610 36,000  Level Anchorage Center
Wed 07:03:14 AM 50.7833 177.2833 72° East 530 610 36,000  Level Anchorage Center
Wed 07:04:14 AM 50.8333 177.5333 74° East 520 598 36,000  Level Anchorage Center
Wed 07:05:13 AM 50.8667 177.7167 71° East 520 598 36,000  Level Anchorage Center
Wed 07:06:14 AM 50.9167 177.9500 74° East 530 610 36,000  Level Anchorage Center
Wed 07:07:14 AM 50.9500 178.1333 72° East 510 587 36,000  Level Anchorage Center
Wed 07:08:14 AM 51.0000 178.3833 74° East 530 610 36,000  Level Anchorage Center
Wed 07:09:14 AM 51.0333 178.5667 72° East 520 598 36,000  Level Anchorage Center
Wed 07:10:14 AM 51.0833 178.8167 73° East 520 598 36,000  Level Anchorage Center
Wed 07:12:14 AM 51.1667 179.2500 71° East 490 564 36,000  Level Anchorage Center
Wed 07:13:14 AM 51.2167 179.4833 75° East 510 587 36,000  Level Anchorage Center
Wed 07:14:14 AM 51.2500 179.6833 72° East 520 598 36,000  Level Anchorage Center
Wed 07:15:14 AM 51.3000 179.9333 76° East 520 598 36,000  Level Anchorage Center
Wed 07:16:14 AM 51.3333 -179.8500 73° East 520 598 36,000  Level Anchorage Center
Wed 07:23:53 AM 51.6500 -178.1167 76° East 524 603 36,000  Level Anchorage Center
Wed 07:30:56 AM 51.8667 -176.6833 86° East 513 590 36,000 72 Level Anchorage Center
Wed 07:37:44 AM 51.9333 -174.9667 87° East 508 585 37,000 48 Climbing Anchorage Center
Wed 07:51:36 AM 52.0000 -171.8500 89° East 501 577 37,000  Level Anchorage Center
Wed 08:00:08 AM 52.0000 -170.0000 96° East 514 592 37,000  Level Anchorage Center
Wed 08:05:39 AM 51.9167 -168.7500 96° East 520 598 37,000  Level Anchorage Center
Wed 08:25:54 AM 51.5500 -164.3000 100° East 534 615 37,000  Level Oakland Oceanic (ODAPS)
Wed 08:39:13 AM 51.1500 -161.0667 102° East 546 628 37,000  Level Oakland Oceanic (ODAPS)
Wed 08:44:44 AM 51.0000 -160.0000 103° East 559 643 37,000  Level Oakland Oceanic (ODAPS)
Wed 08:52:43 AM 50.6500 -157.7833 360° North 559 643 37,000  Level Oakland Oceanic (ODAPS)
Wed 08:52:53 AM 50.6500 -157.7833 105° East 562 647 37,000  Level Oakland Oceanic (ODAPS)
Wed 09:06:40 AM 50.0333 -154.5000 108° East 573 659 37,000  Level Oakland Oceanic (ODAPS)
Wed 09:20:39 AM 49.3167 -151.2833 110° East 578 665 37,000  Level Oakland Oceanic (ODAPS)
Wed 09:26:32 AM 49.0000 -150.0000 116° Southeast 574 661 37,000  Level Oakland Oceanic (ODAPS)
Wed 09:34:23 AM 48.4000 -148.2167 118° Southeast 574 661 37,000  Level Oakland Oceanic (ODAPS)
Wed 09:48:24 AM 47.3167 -145.3333 120° Southeast 572 658 37,000  Level Oakland Oceanic (ODAPS)
Wed 10:02:07 AM 46.1833 -142.5833 122° Southeast 565 650 37,000  Level Oakland Oceanic (ODAPS)
Wed 10:16:56 AM 45.0000 -140.0000 109° East 558 642 37,000 36 Level Oakland Oceanic (ODAPS)
Wed 10:29:52 AM 44.2667 -137.1667 111° Southeast 541 623 38,000 37 Climbing Oakland Oceanic (ODAPS)
Wed 10:43:44 AM 43.4833 -134.4833 113° Southeast 535 616 38,000  Level Oakland Oceanic (ODAPS)
Wed 10:57:36 AM 42.6667 -131.9167 115° Southeast 526 605 38,000  Level Oakland Oceanic (ODAPS)
Wed 11:08:33 AM 42.0000 -130.0000 119° Southeast 522 601 38,000  Level Oakland Oceanic (ODAPS)
Wed 11:11:24 AM 41.7833 -129.4833 121° Southeast 508 585 38,000  Level Oakland Oceanic (ODAPS)
Wed 11:25:16 AM 40.7333 -127.2333 119° Southeast 528 608 38,000  Level Oakland Oceanic (ODAPS)
Wed 11:34:53 AM 40.0544 -125.6386 120° Southeast 493 567 38,000  Level Oakland Center
Wed 11:38:54 AM 39.7594 -124.9842 134° Southeast 522 601 38,000  Level Oakland Center
Wed 11:39:53 AM 39.6597 -124.8519 136° Southeast 511 588 38,000  Level Oakland Center
Wed 11:40:53 AM 39.5575 -124.7222 135° Southeast 511 588 38,000  Level Oakland Center
Wed 11:41:53 AM 39.4572 -124.5933 134° Southeast 511 588 38,000  Level Oakland Center
Wed 11:42:53 AM 39.3689 -124.4761 135° Southeast 504 580 38,000  Level Oakland Center
Wed 11:43:53 AM 39.2706 -124.3478 138° Southeast 504 580 38,000  Level Oakland Center
Wed 11:44:53 AM 39.1514 -124.2083 136° Southeast 520 598 38,000  Level Oakland Center
Wed 11:45:53 AM 39.0506 -124.0833 136° Southeast 520 598 38,000 -50 Level Oakland Center
Wed 11:46:53 AM 38.9494 -123.9561 135° Southeast 515 593 37,900 -744 Descending Oakland Center
Wed 11:47:54 AM 38.8625 -123.8431 136° Southeast 508 585 36,500 -1,500 Descending Oakland Center
Wed 11:48:53 AM 38.7592 -123.7167 136° Southeast 508 585 34,900 -1,563 Descending Oakland Center
Wed 11:49:53 AM 38.6558 -123.5875 137° Southeast 515 593 33,400 -2,281 Descending Oakland Center
Wed 11:50:54 AM 38.5542 -123.4644 136° Southeast 515 593 30,300 -3,350 Descending Oakland Center
Wed 11:51:53 AM 38.4525 -123.3389 137° Southeast 515 593 26,700 -3,429 Descending Oakland Center
Wed 11:52:53 AM 38.3525 -123.2192 136° Southeast 509 586 23,500 -3,124 Descending Oakland Center
Wed 11:53:54 AM 38.2589 -123.1053 137° Southeast 490 564 20,400 -2,300 Descending Oakland Center
Wed 11:54:53 AM 38.1689 -122.9997 136° Southeast 466 536 18,900 -706 Descending Oakland Center
Wed 11:55:53 AM 38.0911 -122.9053 139° Southeast 420 483 19,000 -992 Climbing Oakland Center
Wed 11:56:54 AM 38.0092 -122.8133 135° Southeast 397 457 16,900 -2,227 Descending Oakland Center
Wed 11:58:05 AM 37.9253 -122.7086 139° Southeast 375 432 14,100 -2,391 Descending Oakland Center
Wed 11:59:07 AM 37.8533 -122.6306 137° Southeast 359 413 11,600 -1,771 Descending Oakland Center
Wed 11:59:50 AM 37.8000 -122.5667 135° Southeast 335 386 11,000 -350 Descending Northern Cal TRACON
Wed 12:00:50 PM 37.7333 -122.4833 117° Southeast 310 357 11,000 -250 Level Northern Cal TRACON
Wed 12:01:50 PM 37.7000 -122.4000 122° Southeast 244 281 10,500 -1,041 Descending Northern Cal TRACON
Wed 12:02:51 PM 37.6667 -122.3333 122° Southeast 220 253 8,900 -1,785 Descending Northern Cal TRACON
Wed 12:03:51 PM 37.6333 -122.2667 107° East 229 264 6,900 -1,450 Descending Northern Cal TRACON
Wed 12:04:51 PM 37.6167 -122.2000 122° Southeast 213 245 6,000 -450 Descending Northern Cal TRACON
Wed 12:05:51 PM 37.5833 -122.1333 165° South 209 241 6,000 -150 Level Northern Cal TRACON
Wed 12:06:51 PM 37.5333 -122.1167 270° West 219 252 5,700 -950 Descending Northern Cal TRACON
Wed 12:07:51 PM 37.5333 -122.1667 302° West 199 229 4,100 -1,600 Descending Northern Cal TRACON
Wed 12:08:51 PM 37.5667 -122.2333 302° West 193 222 2,500 -1,600 Descending Northern Cal TRACON

Login

Don't have an account? Register now (free) for customized features, flight alerts, and more!